createdAt,value
2022-10-11T00:01:05.520Z,20.25
2022-10-11T00:03:35.431Z,20.92
2022-10-11T00:06:06.279Z,22.65
2022-10-11T00:08:35.133Z,21.95
2022-10-11T00:11:07.090Z,22.05
2022-10-11T00:13:36.329Z,20.83
2022-10-11T00:16:09.508Z,20.60
2022-10-11T00:18:40.486Z,21.90
2022-10-11T00:21:11.889Z,20.17
2022-10-11T00:23:40.621Z,22.60
2022-10-11T00:26:11.712Z,22.35
2022-10-11T00:28:41.105Z,21.45
2022-10-11T00:31:11.422Z,21.45
2022-10-11T00:33:41.522Z,20.50
2022-10-11T00:36:13.869Z,18.92
2022-10-11T00:38:42.332Z,19.52
2022-10-11T00:41:10.816Z,18.63
2022-10-11T00:43:39.890Z,20.23
2022-10-11T00:46:31.000Z,20.02
2022-10-11T00:49:22.715Z,20.88
2022-10-11T00:52:08.379Z,20.13
2022-10-11T00:54:52.387Z,20.45
2022-10-11T00:57:36.485Z,19.05
2022-10-11T01:00:18.883Z,19.30
2022-10-11T01:03:02.485Z,15.48
2022-10-11T01:06:00.161Z,17.45
2022-10-11T01:08:42.169Z,16.67
2022-10-11T01:11:28.670Z,18.23
2022-10-11T01:14:26.874Z,18.15
2022-10-11T01:17:15.128Z,18.23
2022-10-11T01:20:08.340Z,18.20
2022-10-11T01:23:00.495Z,18.13
2022-10-11T01:25:47.749Z,17.25
2022-10-11T01:28:42.651Z,17.00
2022-10-11T01:31:27.245Z,18.42
2022-10-11T01:34:11.941Z,18.08
2022-10-11T01:36:55.337Z,17.30
2022-10-11T01:39:39.749Z,16.92
2022-10-11T01:42:22.291Z,18.58
2022-10-11T01:45:05.782Z,18.67
2022-10-11T01:47:48.879Z,18.08
2022-10-11T01:50:43.546Z,18.13
2022-10-11T01:54:00.400Z,16.83
2022-10-11T01:57:00.524Z,17.75
2022-10-11T01:59:54.796Z,17.17
2022-10-11T02:02:51.561Z,17.27
2022-10-11T02:05:40.315Z,15.63
2022-10-11T02:08:31.383Z,16.77
2022-10-11T02:11:20.426Z,17.15
2022-10-11T02:14:11.101Z,16.00
2022-10-11T02:16:56.365Z,16.25
2022-10-11T02:19:44.296Z,16.55
2022-10-11T02:22:31.719Z,15.15
2022-10-11T02:25:21.289Z,14.05
2022-10-11T02:28:10.609Z,14.98
2022-10-11T02:30:56.002Z,14.20
2022-10-11T02:33:41.919Z,14.70
2022-10-11T02:36:31.612Z,13.48
2022-10-11T02:39:16.570Z,14.45
2022-10-11T02:42:03.672Z,12.50
2022-10-11T02:44:59.732Z,12.48
2022-10-11T02:47:44.456Z,13.35
2022-10-11T02:50:27.889Z,12.85
2022-10-11T02:53:10.747Z,12.77
2022-10-11T02:55:54.416Z,14.18
2022-10-11T02:58:38.233Z,12.90
2022-10-11T03:01:21.112Z,13.23
2022-10-11T03:04:04.088Z,12.63
2022-10-11T03:06:47.056Z,12.80
2022-10-11T03:09:30.062Z,11.63
2022-10-11T03:12:11.070Z,11.52
2022-10-11T03:14:53.245Z,11.40
2022-10-11T03:17:37.189Z,10.70
2022-10-11T03:20:20.863Z,11.25
2022-10-11T03:23:03.505Z,10.57
2022-10-11T03:25:47.882Z,10.13
2022-10-11T03:28:31.207Z,9.32
2022-10-11T03:31:14.182Z,9.32
2022-10-11T03:33:55.254Z,10.50
2022-10-11T03:36:38.647Z,9.68
2022-10-11T03:39:19.627Z,9.25
2022-10-11T03:42:01.426Z,8.68
2022-10-11T03:44:44.352Z,9.73
2022-10-11T03:47:27.419Z,9.50
2022-10-11T03:50:11.036Z,10.15
2022-10-11T03:52:55.119Z,8.85
2022-10-11T03:55:39.566Z,8.10
2022-10-11T03:58:23.520Z,8.00
2022-10-11T04:01:07.220Z,8.68
2022-10-11T04:03:49.071Z,7.07
2022-10-11T04:06:32.160Z,7.72
2022-10-11T04:09:14.687Z,7.97
2022-10-11T04:11:57.741Z,8.20
2022-10-11T04:14:40.754Z,9.70
2022-10-11T04:17:22.113Z,8.70
2022-10-11T04:20:05.836Z,6.85
2022-10-11T04:22:49.751Z,7.40
2022-10-11T04:25:30.794Z,7.25
2022-10-11T04:28:14.246Z,7.50
2022-10-11T04:30:57.643Z,7.22
2022-10-11T04:33:39.929Z,7.68
2022-10-11T04:36:23.226Z,8.25
2022-10-11T04:39:06.618Z,8.50
2022-10-11T04:41:49.263Z,7.30
2022-10-11T04:44:31.643Z,6.68
2022-10-11T04:47:15.379Z,6.63
2022-10-11T04:49:57.944Z,6.03
2022-10-11T04:52:41.341Z,7.45
2022-10-11T04:55:22.231Z,6.80
2022-10-11T04:58:05.672Z,7.30
2022-10-11T05:04:04.941Z,7.22
2022-10-11T05:06:46.227Z,7.57
2022-10-11T05:09:29.860Z,7.20
2022-10-11T05:12:12.632Z,7.00
2022-10-11T05:14:53.744Z,5.78
2022-10-11T05:17:37.087Z,6.38
2022-10-11T05:20:20.410Z,6.05
2022-10-11T05:23:03.309Z,5.90
2022-10-11T05:25:46.373Z,6.28
2022-10-11T05:28:29.542Z,6.28
2022-10-11T05:31:12.963Z,6.45
2022-10-11T05:33:57.034Z,6.20
2022-10-11T05:36:40.005Z,7.40
2022-10-11T05:39:23.054Z,6.95
2022-10-11T05:42:09.730Z,6.68
2022-10-11T05:44:53.776Z,5.97
2022-10-11T05:47:34.679Z,5.75
2022-10-11T05:50:19.653Z,5.90
2022-10-11T05:53:04.697Z,5.60
2022-10-11T05:55:47.399Z,5.68
2022-10-11T05:58:30.288Z,5.30
2022-10-11T06:01:16.900Z,6.15
2022-10-11T06:03:59.447Z,7.05
2022-10-11T06:06:40.654Z,6.00
2022-10-11T06:09:24.262Z,5.57
2022-10-11T06:12:07.708Z,5.63
2022-10-11T06:15:18.494Z,5.53
2022-10-11T06:18:13.926Z,5.72
2022-10-11T06:21:13.249Z,6.15
2022-10-11T06:24:12.465Z,6.03
2022-10-11T06:27:18.293Z,5.63
2022-10-11T06:30:24.748Z,5.75
2022-10-11T06:33:22.678Z,5.90
2022-10-11T06:36:20.307Z,5.95
2022-10-11T06:39:14.747Z,5.80
2022-10-11T06:42:14.792Z,5.82
2022-10-11T06:45:20.500Z,5.75
2022-10-11T06:48:20.425Z,5.60
2022-10-11T06:51:28.799Z,5.72
2022-10-11T06:54:09.146Z,5.82
2022-10-11T06:56:51.028Z,5.68
2022-10-11T06:59:50.885Z,6.35
2022-10-11T07:03:03.735Z,6.65
2022-10-11T07:06:03.055Z,6.82
2022-10-11T07:09:04.282Z,8.10
2022-10-11T07:12:00.997Z,7.90
2022-10-11T07:14:58.518Z,8.32
2022-10-11T07:17:59.331Z,6.32
2022-10-11T07:21:04.490Z,5.40
2022-10-11T07:24:10.898Z,5.10
2022-10-11T07:27:10.104Z,5.90
2022-10-11T07:30:21.410Z,4.57
2022-10-11T07:33:25.255Z,4.95
2022-10-11T07:36:20.546Z,4.95
2022-10-11T07:39:23.557Z,4.60
2022-10-11T07:42:51.823Z,4.57
2022-10-11T07:45:54.556Z,5.68
2022-10-11T07:48:50.277Z,5.10
2022-10-11T07:51:50.861Z,4.80
2022-10-11T07:54:51.488Z,5.90
2022-10-11T07:57:57.987Z,5.47
2022-10-11T08:00:56.344Z,5.50
2022-10-11T08:03:56.998Z,5.50
2022-10-11T08:06:53.691Z,6.70
2022-10-11T08:09:56.931Z,8.80
2022-10-11T08:12:57.707Z,10.60
2022-10-11T08:15:55.213Z,10.85
2022-10-11T08:18:57.248Z,11.55
2022-10-11T08:21:55.024Z,11.82
2022-10-11T08:24:52.403Z,14.02
2022-10-11T08:27:52.798Z,13.90
2022-10-11T08:30:51.582Z,10.60
2022-10-11T08:33:56.692Z,12.98
2022-10-11T08:37:11.369Z,12.00
2022-10-11T08:40:17.397Z,14.48
2022-10-11T08:43:34.020Z,17.25
2022-10-11T08:46:38.156Z,17.20
2022-10-11T08:49:38.494Z,16.33
2022-10-11T08:52:44.036Z,15.95
2022-10-11T08:55:45.996Z,13.73
2022-10-11T08:58:18.747Z,13.25
2022-10-11T09:00:49.962Z,13.13
2022-10-11T09:03:28.507Z,12.80
2022-10-11T09:06:09.968Z,13.30
2022-10-11T09:08:56.693Z,12.82
2022-10-11T09:11:37.636Z,12.35
2022-10-11T09:14:26.289Z,13.05
2022-10-11T09:17:04.664Z,13.52
2022-10-11T09:19:54.119Z,13.15
2022-10-11T09:22:30.864Z,12.20
2022-10-11T09:25:19.575Z,11.07
2022-10-11T09:28:02.974Z,10.77
2022-10-11T09:30:33.282Z,9.43
2022-10-11T09:33:12.108Z,9.18
2022-10-11T09:35:44.191Z,9.13
2022-10-11T09:38:22.633Z,7.85
2022-10-11T09:41:02.799Z,7.68
2022-10-11T09:43:32.889Z,8.73
2022-10-11T09:46:01.409Z,8.40
2022-10-11T09:48:38.616Z,7.65
2022-10-11T09:51:14.344Z,8.50
2022-10-11T09:53:55.173Z,9.15
2022-10-11T09:56:25.056Z,8.15
2022-10-11T09:59:17.776Z,8.55
2022-10-11T10:01:46.437Z,7.90
2022-10-11T10:04:18.391Z,8.02
2022-10-11T10:06:47.060Z,8.45
2022-10-11T10:09:30.257Z,8.48
2022-10-11T10:11:59.407Z,7.93
2022-10-11T10:14:31.626Z,7.80
2022-10-11T10:17:03.939Z,7.28
2022-10-11T10:19:44.907Z,6.70
2022-10-11T10:22:20.337Z,7.35
2022-10-11T10:24:50.606Z,6.95
2022-10-11T10:27:24.868Z,7.07
2022-10-11T10:30:17.163Z,6.00
2022-10-11T10:32:54.571Z,6.15
2022-10-11T10:35:34.161Z,5.40
2022-10-11T10:38:13.447Z,5.78
2022-10-11T10:40:46.455Z,4.15
2022-10-11T10:43:17.569Z,4.60
2022-10-11T10:46:03.896Z,8.45
2022-10-11T10:49:12.045Z,4.82
2022-10-11T10:51:40.690Z,6.43
2022-10-11T10:54:18.937Z,4.70
2022-10-11T10:56:53.673Z,5.93
2022-10-11T10:59:48.631Z,17.83
2022-10-11T11:02:39.756Z,12.38
2022-10-11T11:05:18.984Z,3.95
2022-10-11T11:07:52.030Z,8.07
2022-10-11T11:10:24.276Z,4.25
2022-10-11T11:13:06.538Z,3.20
2022-10-11T11:15:42.018Z,2.65
2022-10-11T11:18:28.663Z,2.95
2022-10-11T11:21:14.080Z,3.60
2022-10-11T11:23:50.389Z,2.28
2022-10-11T11:26:26.637Z,2.40
2022-10-11T11:29:18.816Z,2.15
2022-10-11T11:32:07.636Z,2.13
2022-10-11T11:34:42.889Z,1.90
2022-10-11T11:37:23.593Z,1.90
2022-10-11T11:39:57.116Z,2.22
2022-10-11T11:42:31.313Z,2.13
2022-10-11T11:45:06.775Z,2.00
2022-10-11T11:47:39.336Z,2.47
2022-10-11T11:50:22.787Z,2.05
2022-10-11T11:52:54.071Z,1.80
2022-10-11T11:55:30.990Z,2.92
2022-10-11T11:58:10.233Z,1.75
2022-10-11T12:00:50.296Z,1.60
2022-10-11T12:03:22.703Z,1.85
2022-10-11T12:06:24.308Z,2.13
2022-10-11T12:09:03.732Z,1.98
2022-10-11T12:11:43.352Z,2.40
2022-10-11T12:14:37.054Z,1.90
2022-10-11T12:17:15.856Z,1.77
2022-10-11T12:20:00.770Z,1.98
2022-10-11T12:22:53.108Z,1.77
2022-10-11T12:26:08.398Z,1.65
2022-10-11T12:29:00.993Z,1.55
2022-10-11T12:31:32.498Z,1.85
2022-10-11T12:34:35.759Z,2.00
2022-10-11T12:37:37.883Z,1.70
2022-10-11T12:40:35.215Z,1.75
2022-10-11T12:43:36.280Z,1.55
2022-10-11T12:46:49.114Z,1.60
2022-10-11T12:49:41.668Z,2.20
2022-10-11T12:52:25.516Z,1.85
2022-10-11T12:55:07.757Z,1.67
2022-10-11T12:58:10.010Z,1.88
2022-10-11T13:00:46.825Z,1.55
2022-10-11T13:03:32.642Z,1.50
2022-10-11T13:06:02.139Z,1.80
2022-10-11T13:08:33.887Z,1.60
2022-10-11T13:11:04.571Z,1.80
2022-10-11T13:13:40.106Z,1.50
2022-10-11T13:16:13.940Z,1.50
2022-10-11T13:18:44.916Z,1.73
2022-10-11T13:21:23.005Z,1.30
2022-10-11T13:23:59.836Z,1.77
2022-10-11T13:26:30.132Z,1.67
2022-10-11T13:29:06.284Z,1.67
2022-10-11T13:31:34.746Z,1.75
2022-10-11T13:34:03.250Z,1.83
2022-10-11T13:36:32.954Z,2.20
2022-10-11T13:39:02.357Z,1.92
2022-10-11T13:41:35.072Z,2.05
2022-10-11T13:44:05.495Z,2.10
2022-10-11T13:46:35.405Z,2.75
2022-10-11T13:49:06.735Z,2.65
2022-10-11T13:51:38.065Z,1.98
2022-10-11T13:54:13.115Z,1.85
2022-10-11T13:56:48.158Z,2.17
2022-10-11T13:59:21.260Z,2.33
2022-10-11T14:01:53.010Z,2.40
2022-10-11T14:04:24.055Z,2.10
2022-10-11T14:06:59.241Z,2.05
2022-10-11T14:09:30.295Z,2.25
2022-10-11T14:12:29.842Z,1.77
2022-10-11T14:15:00.462Z,2.10
2022-10-11T14:17:41.390Z,2.05
2022-10-11T14:20:18.990Z,2.03
2022-10-11T14:22:47.536Z,2.28
2022-10-11T14:25:16.144Z,1.92
2022-10-11T14:27:46.143Z,2.25
2022-10-11T14:30:27.474Z,2.10
2022-10-11T14:32:59.039Z,2.20
2022-10-11T14:35:32.209Z,2.00
2022-10-11T14:38:00.783Z,1.80
2022-10-11T14:40:31.629Z,2.00
2022-10-11T14:43:00.488Z,3.05
2022-10-11T14:45:30.356Z,1.88
2022-10-11T14:47:59.187Z,2.25
2022-10-11T14:50:36.715Z,2.20
2022-10-11T14:53:06.265Z,2.00
2022-10-11T14:55:35.755Z,2.25
2022-10-11T14:58:04.473Z,1.90
2022-10-11T15:00:35.239Z,2.47
2022-10-11T15:03:04.982Z,2.22
2022-10-11T15:05:34.374Z,2.78
2022-10-11T15:08:03.569Z,2.40
2022-10-11T15:10:36.513Z,2.00
2022-10-11T15:13:07.157Z,2.03
2022-10-11T15:15:41.095Z,2.70
2022-10-11T15:18:13.386Z,2.47
2022-10-11T15:20:44.597Z,2.30
2022-10-11T15:23:13.160Z,2.30
2022-10-11T15:25:42.556Z,2.55
2022-10-11T15:28:21.357Z,1.90
2022-10-11T15:30:51.222Z,2.08
2022-10-11T15:33:19.663Z,2.05
2022-10-11T15:35:48.252Z,2.47
2022-10-11T15:38:19.694Z,2.60
2022-10-11T15:40:49.537Z,2.45
2022-10-11T15:43:24.219Z,2.13
2022-10-11T15:45:55.065Z,2.10
2022-10-11T15:48:26.510Z,2.03
2022-10-11T15:50:55.745Z,2.50
2022-10-11T15:53:26.307Z,2.88
2022-10-11T15:55:56.234Z,4.07
2022-10-11T15:58:26.468Z,4.40
2022-10-11T16:00:58.673Z,4.88
2022-10-11T16:03:30.507Z,4.88
2022-10-11T16:06:04.901Z,5.38
2022-10-11T16:08:33.988Z,6.20
2022-10-11T16:11:02.870Z,7.25
2022-10-11T16:13:31.542Z,7.88
2022-10-11T16:16:02.289Z,7.40
2022-10-11T16:18:35.091Z,7.80
2022-10-11T16:21:07.758Z,7.20
2022-10-11T16:23:36.703Z,7.45
2022-10-11T16:26:08.133Z,7.40
2022-10-11T16:28:37.908Z,6.68
2022-10-11T16:31:13.248Z,6.78
2022-10-11T16:33:46.631Z,7.30
2022-10-11T16:36:34.293Z,8.40
2022-10-11T16:39:05.397Z,7.50
2022-10-11T16:41:33.846Z,7.78
2022-10-11T16:44:02.511Z,6.32
2022-10-11T16:46:33.020Z,6.70
2022-10-11T16:49:01.539Z,6.68
2022-10-11T16:51:30.266Z,6.18
2022-10-11T16:53:58.981Z,6.07
2022-10-11T16:56:27.729Z,5.43
2022-10-11T16:58:59.482Z,5.75
2022-10-11T17:01:28.152Z,5.78
2022-10-11T17:03:58.331Z,5.70
2022-10-11T17:06:27.150Z,6.45
2022-10-11T17:08:56.350Z,5.75
2022-10-11T17:11:25.353Z,5.90
2022-10-11T17:13:54.512Z,5.22
2022-10-11T17:16:24.027Z,5.40
2022-10-11T17:18:52.514Z,5.78
2022-10-11T17:21:23.170Z,5.70
2022-10-11T17:23:51.653Z,5.78
2022-10-11T17:26:21.854Z,7.65
2022-10-11T17:28:50.672Z,6.07
2022-10-11T17:31:19.652Z,5.00
2022-10-11T17:33:48.459Z,4.20
2022-10-11T17:36:22.531Z,5.35
2022-10-11T17:38:52.092Z,5.13
2022-10-11T17:41:21.518Z,4.40
2022-10-11T17:43:49.963Z,4.53
2022-10-11T17:46:19.259Z,4.07
2022-10-11T17:48:47.761Z,4.30
2022-10-11T17:51:18.069Z,4.38
2022-10-11T17:53:50.550Z,4.18
2022-10-11T17:56:26.736Z,4.57
2022-10-11T17:58:58.249Z,4.93
2022-10-11T18:01:30.220Z,4.25
2022-10-11T18:04:01.179Z,4.80
2022-10-11T18:06:31.568Z,4.07
2022-10-11T18:09:04.123Z,4.28
2022-10-11T18:11:32.794Z,4.35
2022-10-11T18:14:01.734Z,4.18
2022-10-11T18:16:31.807Z,4.68
2022-10-11T18:19:00.894Z,4.63
2022-10-11T18:21:34.369Z,4.60
2022-10-11T18:24:07.877Z,4.72
2022-10-11T18:26:36.352Z,5.55
2022-10-11T18:29:05.910Z,4.55
2022-10-11T18:31:36.006Z,4.00
2022-10-11T18:34:05.985Z,4.90
2022-10-11T18:36:35.127Z,5.13
2022-10-11T18:39:09.106Z,5.22
2022-10-11T18:41:40.140Z,4.97
2022-10-11T18:44:11.048Z,5.07
2022-10-11T18:46:39.557Z,5.25
2022-10-11T18:49:08.766Z,4.85
2022-10-11T18:51:39.165Z,4.68
2022-10-11T18:54:14.012Z,4.35
2022-10-11T18:56:45.488Z,5.10
2022-10-11T18:59:14.077Z,5.38
2022-10-11T19:01:44.595Z,4.47
2022-10-11T19:04:16.991Z,5.30
2022-10-11T19:06:48.097Z,4.93
2022-10-11T19:09:22.330Z,4.60
2022-10-11T19:11:51.294Z,4.80
2022-10-11T19:14:22.939Z,4.97
2022-10-11T19:16:52.771Z,5.00
2022-10-11T19:19:22.838Z,5.47
2022-10-11T19:21:51.728Z,4.40
2022-10-11T19:24:23.582Z,5.13
2022-10-11T19:26:57.233Z,4.45
2022-10-11T19:29:29.386Z,4.88
2022-10-11T19:31:59.783Z,5.50
2022-10-11T19:34:31.524Z,5.53
2022-10-11T19:37:01.345Z,5.40
2022-10-11T19:39:31.613Z,4.90
2022-10-11T19:42:00.401Z,5.68
2022-10-11T19:44:28.809Z,5.43
2022-10-11T19:47:01.452Z,5.18
2022-10-11T19:49:32.894Z,5.22
2022-10-11T19:52:01.996Z,5.55
2022-10-11T19:54:32.094Z,5.55
2022-10-11T19:57:00.522Z,5.55
2022-10-11T19:59:29.149Z,5.13
2022-10-11T20:01:57.558Z,5.25
2022-10-11T20:07:14.628Z,5.72
2022-10-11T20:09:44.614Z,5.78
2022-10-11T20:12:13.066Z,5.85
2022-10-11T20:14:41.701Z,5.53
2022-10-11T20:17:10.196Z,4.90
2022-10-11T20:19:39.026Z,6.47
2022-10-11T20:22:07.939Z,5.97
2022-10-11T20:24:36.419Z,4.50
2022-10-11T20:27:07.542Z,5.47
2022-10-11T20:29:35.987Z,5.18
2022-10-11T20:32:04.805Z,5.53
2022-10-11T20:34:33.464Z,5.75
2022-10-11T20:37:01.863Z,5.53
2022-10-11T20:39:30.592Z,5.85
2022-10-11T20:41:59.433Z,6.25
2022-10-11T20:44:29.376Z,5.00
2022-10-11T20:47:03.009Z,5.30
2022-10-11T20:49:32.413Z,5.32
2022-10-11T20:52:00.852Z,5.38
2022-10-11T20:54:30.739Z,5.65
2022-10-11T20:56:59.348Z,5.15
2022-10-11T20:59:29.225Z,4.88
2022-10-11T21:01:57.692Z,5.35
2022-10-11T21:04:26.515Z,4.97
2022-10-11T21:06:54.955Z,5.90
2022-10-11T21:09:23.538Z,6.03
2022-10-11T21:11:52.082Z,6.00
2022-10-11T21:14:20.492Z,5.55
2022-10-11T21:16:50.336Z,6.15
2022-10-11T21:19:18.819Z,6.03
2022-10-11T21:21:52.689Z,5.25
2022-10-11T21:24:22.745Z,4.97
2022-10-11T21:26:51.226Z,5.28
2022-10-11T21:29:19.694Z,6.10
2022-10-11T21:31:49.906Z,5.80
2022-10-11T21:34:18.535Z,5.75
2022-10-11T21:36:46.988Z,6.18
2022-10-11T21:39:15.485Z,6.55
2022-10-11T21:41:43.931Z,8.35
2022-10-11T21:44:12.365Z,9.77
2022-10-11T21:49:30.797Z,6.93
2022-10-11T21:51:59.414Z,7.20
2022-10-11T21:54:27.888Z,7.68
2022-10-11T21:56:56.311Z,8.60
2022-10-11T21:59:24.781Z,9.15
2022-10-11T22:01:55.045Z,9.05
2022-10-11T22:04:27.090Z,8.48
2022-10-11T22:06:56.917Z,9.75
2022-10-11T22:09:25.575Z,9.65
2022-10-11T22:11:54.051Z,10.43
2022-10-11T22:14:22.524Z,8.57
2022-10-11T22:16:50.935Z,8.50
2022-10-11T22:19:19.497Z,7.57
2022-10-11T22:21:47.941Z,7.75
2022-10-11T22:24:17.829Z,8.77
2022-10-11T22:26:46.334Z,7.65
2022-10-11T22:29:14.757Z,7.47
2022-10-11T22:31:43.522Z,7.07
2022-10-11T22:34:12.190Z,6.68
2022-10-11T22:36:40.584Z,6.53
2022-10-11T22:39:10.223Z,6.45
2022-10-11T22:41:40.133Z,6.55
2022-10-11T22:44:08.665Z,6.13
2022-10-11T22:46:37.519Z,7.03
2022-10-11T22:49:06.217Z,5.65
2022-10-11T22:51:34.746Z,7.07
2022-10-11T22:54:03.152Z,7.07
2022-10-11T22:56:31.655Z,7.18
2022-10-11T22:59:01.539Z,8.85
2022-10-11T23:01:29.979Z,7.70
2022-10-11T23:03:58.480Z,7.57
2022-10-11T23:06:27.261Z,8.52
2022-10-11T23:08:55.982Z,7.95
2022-10-11T23:11:24.608Z,9.25
2022-10-11T23:13:53.008Z,9.35
2022-10-11T23:16:22.794Z,10.05
2022-10-11T23:18:53.661Z,11.45
2022-10-11T23:21:22.619Z,11.00
2022-10-11T23:23:53.468Z,12.07
2022-10-11T23:26:22.283Z,12.15
2022-10-11T23:28:55.601Z,11.38
2022-10-11T23:31:25.420Z,10.45
2022-10-11T23:33:54.850Z,9.73
2022-10-11T23:36:25.556Z,9.60
2022-10-11T23:38:55.575Z,9.43
2022-10-11T23:41:25.422Z,9.00
2022-10-11T23:43:54.067Z,9.38
2022-10-11T23:46:22.784Z,9.02
2022-10-11T23:48:52.645Z,7.95
2022-10-11T23:51:21.302Z,7.53
2022-10-11T23:53:50.432Z,7.82
2022-10-11T23:56:18.874Z,7.68
2022-10-11T23:58:47.321Z,7.97
